Time;durP1;ratioP1;P1;durP2;ratioP2;P2;SDS_P1;SDS_P2;PMS_P1;PMS_P2;Temp;Humidity;BMP_temperature;BMP_pressure;BME280_temperature;BME280_humidity;BME280_pressure;Samples;Min_cycle;Max_cycle;Signal;HPM_P1;HPM_P2
2022/04/27 00:00:33;;;;;;;15.27;9.73;;;9.80;99.90;;;;;;5053836;28;20479;-74
2022/04/27 00:03:00;;;;;;;16.52;10.52;;;9.80;99.90;;;;;;5036131;28;20403;-72
2022/04/27 00:05:26;;;;;;;16.10;9.90;;;9.80;99.90;;;;;;5054012;28;20035;-72
2022/04/27 00:07:51;;;;;;;15.30;9.60;;;9.70;99.90;;;;;;5053608;28;20454;-69
2022/04/27 00:10:21;;;;;;;17.38;10.23;;;9.70;99.90;;;;;;5053668;28;20111;-73
2022/04/27 00:12:47;;;;;;;17.80;10.15;;;9.70;99.90;;;;;;5053664;28;20022;-72
2022/04/27 00:15:14;;;;;;;16.10;9.77;;;9.70;99.90;;;;;;5053801;28;20079;-71
2022/04/27 00:17:40;;;;;;;20.58;9.60;;;9.70;99.90;;;;;;5053541;28;20025;-73
2022/04/27 00:20:07;;;;;;;17.48;9.70;;;9.60;99.90;;;;;;5053817;28;20052;-73
2022/04/27 00:22:34;;;;;;;17.55;10.32;;;9.60;99.90;;;;;;5053429;28;20032;-72
2022/04/27 00:25:04;;;;;;;15.95;9.52;;;9.60;99.90;;;;;;5053711;28;20056;-72
2022/04/27 00:27:30;;;;;;;19.85;9.82;;;9.50;99.90;;;;;;5053320;28;20088;-70
2022/04/27 00:29:57;;;;;;;19.13;9.52;;;9.50;99.90;;;;;;5053369;28;20017;-72
2022/04/27 00:32:23;;;;;;;16.23;9.45;;;9.50;99.90;;;;;;5053192;28;20027;-71
2022/04/27 00:34:49;;;;;;;14.15;9.23;;;9.50;99.90;;;;;;5035628;28;20128;-71
2022/04/27 00:37:15;;;;;;;18.38;9.55;;;9.50;99.90;;;;;;5053294;28;20483;-72
2022/04/27 00:39:40;;;;;;;20.10;9.73;;;9.50;99.90;;;;;;5053215;28;20566;-71
2022/04/27 00:42:13;;;;;;;15.68;9.93;;;9.50;99.90;;;;;;5053188;28;20116;-73
2022/04/27 00:44:43;;;;;;;16.63;9.75;;;9.50;99.90;;;;;;5035200;28;20036;-73
2022/04/27 00:47:13;;;;;;;13.55;9.07;;;9.50;99.90;;;;;;5053356;28;20483;-72
2022/04/27 00:49:45;;;;;;;18.40;9.18;;;9.40;99.90;;;;;;5053118;28;20104;-73
2022/04/27 00:52:13;;;;;;;16.25;9.55;;;9.40;99.90;;;;;;5053626;28;20017;-72
2022/04/27 00:54:44;;;;;;;15.77;10.05;;;9.40;99.90;;;;;;5052987;28;20479;-72
2022/04/27 00:57:10;;;;;;;;;;;9.40;99.90;;;;;;5053465;28;20025;-70
2022/04/27 00:59:36;;;;;;;16.92;9.70;;;9.40;99.90;;;;;;5053288;28;19995;-71
2022/04/27 01:02:06;;;;;;;15.15;8.32;;;9.30;99.90;;;;;;5052942;28;20039;-73
2022/04/27 01:04:36;;;;;;;14.32;9.00;;;9.30;99.90;;;;;;5052916;28;20517;-72
2022/04/27 01:07:03;;;;;;;20.42;9.88;;;9.30;99.90;;;;;;5053181;28;20402;-71
2022/04/27 01:09:30;;;;;;;16.15;9.70;;;9.30;99.90;;;;;;5053428;28;20036;-72
2022/04/27 01:11:57;;;;;;;15.57;8.27;;;9.30;99.90;;;;;;5052866;28;20475;-70
2022/04/27 01:14:23;;;;;;;17.30;9.07;;;9.40;99.90;;;;;;5034963;28;20025;-72
2022/04/27 01:16:53;;;;;;;16.45;9.35;;;9.40;99.90;;;;;;5052751;28;20029;-71
2022/04/27 01:19:20;;;;;;;16.88;8.55;;;9.40;99.90;;;;;;5052864;28;20025;-71
2022/04/27 01:21:48;;;;;;;15.52;9.23;;;9.40;99.90;;;;;;5053070;28;20364;-72
2022/04/27 01:24:17;;;;;;;16.70;8.40;;;9.30;99.90;;;;;;5053049;28;20021;-72
2022/04/27 01:26:43;;;;;;;14.48;9.50;;;9.30;99.90;;;;;;5052423;28;20049;-72
2022/04/27 01:29:08;;;;;;;14.48;8.25;;;9.30;99.90;;;;;;5034810;28;20094;-72
2022/04/27 01:31:34;;;;;;;13.13;8.23;;;9.30;99.90;;;;;;5052937;28;20032;-71
2022/04/27 01:33:59;;;;;;;14.30;8.68;;;9.20;99.90;;;;;;5052678;28;20033;-73
2022/04/27 01:36:25;;;;;;;15.50;9.15;;;9.30;99.90;;;;;;5052933;28;20045;-72
2022/04/27 01:38:51;;;;;;;13.88;8.77;;;9.30;99.90;;;;;;5052864;28;20581;-72
2022/04/27 01:41:16;;;;;;;14.15;8.65;;;9.30;99.90;;;;;;5052845;28;20032;-73
2022/04/27 01:43:42;;;;;;;14.00;8.75;;;9.20;99.90;;;;;;5054488;28;20052;-72
2022/04/27 01:46:08;;;;;;;14.68;8.13;;;9.20;99.90;;;;;;5056397;28;20021;-73
2022/04/27 01:48:34;;;;;;;13.07;8.45;;;9.20;99.90;;;;;;5056276;28;20111;-73
2022/04/27 01:50:59;;;;;;;15.70;9.48;;;9.20;99.90;;;;;;5056567;28;20028;-70
2022/04/27 01:56:09;;;;;;;15.20;8.35;;;9.10;99.90;;;;;;5056262;28;20167;-73
2022/04/27 01:58:35;;;;;;;12.57;7.75;;;9.10;99.90;;;;;;5056722;28;20066;-73
2022/04/27 02:01:00;;;;;;;13.82;8.23;;;9.10;99.90;;;;;;5038142;28;20017;-71
2022/04/27 02:03:26;;;;;;;14.48;7.40;;;9.10;99.90;;;;;;5056078;28;20036;-73
2022/04/27 02:05:52;;;;;;;15.85;8.65;;;9.10;99.90;;;;;;5056103;28;20103;-70
2022/04/27 02:08:18;;;;;;;13.77;7.65;;;9.10;99.90;;;;;;5055949;28;20087;-70
2022/04/27 02:10:45;;;;;;;15.38;8.63;;;9.00;99.90;;;;;;5056185;28;20383;-74
2022/04/27 02:13:11;;;;;;;14.15;8.25;;;9.10;99.90;;;;;;5055878;28;20105;-74
2022/04/27 02:15:37;;;;;;;11.90;7.25;;;9.00;99.90;;;;;;5055771;28;20029;-73
2022/04/27 02:18:03;;;;;;;12.88;7.60;;;8.90;99.90;;;;;;5055857;28;20036;-73
2022/04/27 02:20:30;;;;;;;12.05;7.50;;;9.00;99.90;;;;;;5055759;28;20039;-72
2022/04/27 02:22:55;;;;;;;11.30;7.43;;;8.90;99.90;;;;;;5056046;28;20021;-72
2022/04/27 02:25:24;;;;;;;14.52;8.13;;;8.80;99.90;;;;;;5055486;28;20483;-72
2022/04/27 02:27:50;;;;;;;11.55;7.43;;;8.90;99.90;;;;;;5056167;28;20040;-73
2022/04/27 02:30:18;;;;;;;14.77;8.43;;;8.90;99.90;;;;;;5055600;28;20021;-72
2022/04/27 02:32:47;;;;;;;12.38;8.07;;;8.80;99.90;;;;;;5055526;28;20151;-73
2022/04/27 02:35:14;;;;;;;11.25;7.70;;;8.80;99.90;;;;;;5056015;28;20379;-71
2022/04/27 02:37:41;;;;;;;13.68;8.13;;;8.80;99.90;;;;;;5055446;28;20028;-71
2022/04/27 02:40:10;;;;;;;14.40;7.68;;;8.80;99.90;;;;;;5055391;28;20028;-72
2022/04/27 02:42:36;;;;;;;11.40;7.50;;;8.80;99.90;;;;;;5055626;28;20029;-72
2022/04/27 02:45:02;;;;;;;16.38;7.80;;;8.70;99.90;;;;;;5055317;28;20112;-72
2022/04/27 02:47:28;;;;;;;10.73;7.53;;;8.70;99.90;;;;;;5055191;28;20108;-72
2022/04/27 02:52:37;;;;;;;14.75;7.97;;;8.70;99.90;;;;;;5055237;28;20066;-72
2022/04/27 02:55:03;;;;;;;14.10;8.63;;;8.60;99.90;;;;;;5053825;28;20402;-73
2022/04/27 02:57:29;;;;;;;15.90;8.45;;;8.60;99.90;;;;;;5055341;28;20025;-72
2022/04/27 02:59:55;;;;;;;14.38;7.85;;;8.60;99.90;;;;;;5055022;28;20033;-74
2022/04/27 03:02:20;;;;;;;12.25;7.95;;;8.60;99.90;;;;;;5054957;28;20029;-72
2022/04/27 03:04:46;;;;;;;14.82;8.45;;;8.60;99.90;;;;;;5054919;28;20025;-70
2022/04/27 03:07:12;;;;;;;14.48;8.07;;;8.60;99.90;;;;;;5054782;28;20436;-72
2022/04/27 03:09:37;;;;;;;15.48;7.70;;;8.50;99.90;;;;;;5054887;28;20371;-73
2022/04/27 03:12:03;;;;;;;14.40;8.38;;;8.50;99.90;;;;;;5055068;28;20018;-71
2022/04/27 03:14:29;;;;;;;16.05;7.82;;;8.50;99.90;;;;;;5054670;28;20029;-73
2022/04/27 03:16:55;;;;;;;12.18;8.10;;;8.50;99.90;;;;;;5054715;28;20467;-70
2022/04/27 03:19:21;;;;;;;12.75;7.35;;;8.40;99.90;;;;;;5054696;28;20067;-70
2022/04/27 03:21:47;;;;;;;13.27;7.97;;;8.40;99.90;;;;;;5054623;28;20025;-73
2022/04/27 03:24:13;;;;;;;12.10;7.60;;;8.40;99.90;;;;;;5054579;28;20036;-73
2022/04/27 03:26:39;;;;;;;14.50;8.13;;;8.30;99.90;;;;;;5054337;28;20049;-70
2022/04/27 03:29:05;;;;;;;14.43;7.40;;;8.40;99.90;;;;;;5054481;28;20397;-71
2022/04/27 03:31:31;;;;;;;13.50;8.38;;;8.30;99.90;;;;;;5054404;28;20021;-70
2022/04/27 03:33:56;;;;;;;13.60;8.30;;;8.20;99.90;;;;;;5054176;28;20021;-71
2022/04/27 03:36:22;;;;;;;14.05;8.52;;;8.20;99.90;;;;;;5054294;28;20025;-72
2022/04/27 03:38:48;;;;;;;13.27;8.30;;;;;;;;;;5054294;28;20553;-73
2022/04/27 03:41:20;;;;;;;13.32;7.88;;;;;;;;;;5054496;28;20025;-71
2022/04/27 03:43:46;;;;;;;12.95;8.27;;;;;;;;;;5054215;28;20104;-72
2022/04/27 03:46:12;;;;;;;12.00;8.70;;;;;;;;;;5054650;28;20021;-73
2022/04/27 03:48:39;;;;;;;14.15;7.97;;;;;;;;;;5054040;28;20458;-72
2022/04/27 03:51:05;;;;;;;14.63;7.97;;;;;;;;;;5054033;28;20494;-71
2022/04/27 03:53:31;;;;;;;14.13;7.82;;;;;;;;;;5053959;28;20029;-74
2022/04/27 03:55:57;;;;;;;15.05;8.50;;;;;;;;;;5054218;28;20022;-73
2022/04/27 03:58:23;;;;;;;14.95;8.73;;;;;;;;;;5053916;28;20398;-74
2022/04/27 04:00:49;;;;;;;15.57;8.85;;;;;;;;;;5054085;28;20056;-71
2022/04/27 04:03:15;;;;;;;16.42;8.07;;;;;;;;;;5053861;28;20135;-72
2022/04/27 04:05:41;;;;;;;12.98;8.35;;;;;;;;;;5053383;28;20028;-73
2022/04/27 04:08:08;;;;;;;12.93;7.57;;;;;;;;;;5035889;28;20033;-71
2022/04/27 04:10:34;;;;;;;12.80;8.43;;;;;;;;;;5053972;28;20151;-71
2022/04/27 04:13:00;;;;;;;13.25;9.05;;;;;;;;;;5053655;28;20025;-72
2022/04/27 04:15:26;;;;;;;13.60;8.60;;;;;;;;;;5053775;28;20155;-71
2022/04/27 04:17:52;;;;;;;11.88;8.10;;;;;;;;;;5053524;28;20070;-72
2022/04/27 04:20:18;;;;;;;14.40;8.55;;;;;;;;;;5053533;28;20021;-72
2022/04/27 04:22:45;;;;;;;13.13;8.02;;;;;;;;;;5053683;28;20039;-71
2022/04/27 04:30:41;;;;;;;13.00;8.10;;;;;;;;;;5053386;28;20036;-71
2022/04/27 04:33:07;;;;;;;12.00;7.75;;;;;;;;;;5035399;28;20453;-73
2022/04/27 04:35:33;;;;;;;13.23;8.20;;;;;;;;;;5053244;28;20100;-73
2022/04/27 04:37:59;;;;;;;14.48;8.10;;;;;;;;;;5053513;28;20033;-74
2022/04/27 04:40:25;;;;;;;13.52;7.97;;;;;;;;;;5053217;28;20027;-71
2022/04/27 04:42:53;;;;;;;15.93;8.73;;;;;;;;;;5053423;28;20029;-73
2022/04/27 04:45:19;;;;;;;14.30;8.77;;;;;;;;;;5053433;28;20029;-73
2022/04/27 04:47:45;;;;;;;13.13;8.32;;;;;;;;;;5053054;28;20035;-73
2022/04/27 04:50:12;;;;;;;14.25;8.77;;;;;;;;;;5053344;28;20052;-73
2022/04/27 04:52:38;;;;;;;18.58;8.65;;;;;;;;;;5053097;28;20021;-73
2022/04/27 04:55:04;;;;;;;14.82;8.65;;;;;;;;;;5053050;28;20104;-72
2022/04/27 04:57:30;;;;;;;12.15;7.82;;;;;;;;;;5053535;28;20039;-71
2022/04/27 04:59:56;;;;;;;11.93;8.48;;;;;;;;;;5053026;28;20025;-73
2022/04/27 05:02:22;;;;;;;11.93;8.60;;;;;;;;;;5053237;28;20056;-71
2022/04/27 05:04:50;;;;;;;14.88;8.07;;;;;;;;;;5052955;28;20479;-73
2022/04/27 05:07:18;;;;;;;12.52;7.63;;;;;;;;;;5035005;28;20029;-72
2022/04/27 05:09:44;;;;;;;13.77;8.10;;;;;;;;;;5052927;28;20024;-73
2022/04/27 05:12:10;;;;;;;12.18;7.85;;;;;;;;;;5034912;28;20399;-71
2022/04/27 05:14:36;;;;;;;13.30;8.80;;;;;;;;;;5053322;28;20021;-73
2022/04/27 05:17:02;;;;;;;18.77;8.95;;;;;;;;;;5052847;28;20060;-74
2022/04/27 05:19:28;;;;;;;12.75;8.20;;;;;;;;;;5056254;28;20047;-74
2022/04/27 05:21:54;;;;;;;11.52;7.97;;;;;;;;;;5056894;28;20471;-74
2022/04/27 05:24:20;;;;;;;15.52;8.75;;;;;;;;;;5056850;28;20029;-70
2022/04/27 05:26:46;;;;;;;12.60;8.00;;;;;;;;;;5056544;28;20507;-73
2022/04/27 05:31:58;;;;;;;13.57;8.93;;;;;;;;;;5057279;28;20522;-72
2022/04/27 05:34:33;;;;;;;18.35;8.48;;;;;;;;;;5056599;28;20013;-73
2022/04/27 05:36:59;;;;;;;15.07;8.75;;;;;;;;;;5056581;28;20036;-73
2022/04/27 05:39:25;;;;;;;17.35;8.30;;;;;;;;;;5057108;28;20028;-69
2022/04/27 05:41:51;;;;;;;13.52;8.13;;;;;;;;;;5056531;28;20086;-71
2022/04/27 05:44:22;;;;;;;12.95;7.97;;;;;;;;;;5056440;28;20021;-72
2022/04/27 05:46:48;;;;;;;13.25;8.35;;;;;;;;;;5056989;28;20033;-71
2022/04/27 05:49:14;;;;;;;14.00;8.45;;;;;;;;;;5056420;28;20074;-72
2022/04/27 05:51:40;;;;;;;13.80;7.80;;;;;;;;;;5038419;28;20025;-72
2022/04/27 05:54:06;;;;;;;15.23;8.68;;;;;;;;;;5038664;28;20025;-71
2022/04/27 05:56:33;;;;;;;15.88;8.07;;;;;;;;;;5056239;28;20025;-72
2022/04/27 05:58:59;;;;;;;12.85;8.13;;;;;;;;;;5056277;28;20017;-72
2022/04/27 06:01:25;;;;;;;12.20;7.63;;;;;;;;;;5056195;28;20533;-73
2022/04/27 06:03:53;;;;;;;13.75;8.15;;;;;;;;;;5038248;28;20071;-70
2022/04/27 06:06:19;;;;;;;14.50;8.30;;;;;;;;;;5056033;28;20025;-73
2022/04/27 06:08:45;;;;;;;13.98;8.55;;;;;;;;;;5055931;28;20479;-75
2022/04/27 06:11:11;;;;;;;13.93;8.07;;;;;;;;;;5038041;28;20027;-70
2022/04/27 06:13:38;;;;;;;13.18;7.68;;;;;;;;;;5056199;28;20021;-72
2022/04/27 06:16:03;;;;;;;16.25;8.60;;;8.20;99.90;;;;;;5055780;28;20021;-73
2022/04/27 06:18:29;;;;;;;15.48;7.53;;;9.40;99.90;;;;;;5056346;28;20032;-73
2022/04/27 06:20:56;;;;;;;14.18;7.45;;;10.10;99.90;;;;;;5055785;28;20040;-71
2022/04/27 06:23:23;;;;;;;13.60;7.07;;;10.70;99.90;;;;;;5055732;28;20127;-73
2022/04/27 06:25:49;;;;;;;12.57;7.03;;;12.20;99.90;;;;;;5055550;28;20041;-72
2022/04/27 06:28:16;;;;;;;13.02;7.40;;;14.80;99.90;;;;;;5055857;28;20067;-73
2022/04/27 06:30:42;;;;;;;11.25;6.50;;;16.30;99.90;;;;;;5055351;28;20017;-70
2022/04/27 06:33:08;;;;;;;8.75;5.97;;;17.40;99.90;;;;;;5055592;28;20548;-71
2022/04/27 06:35:33;;;;;;;11.75;7.20;;;17.90;98.50;;;;;;5056032;28;20032;-74
2022/04/27 06:37:59;;;;;;;11.00;7.22;;;18.20;97.40;;;;;;5037587;28;20486;-73
2022/04/27 06:40:25;;;;;;;11.75;6.43;;;18.40;96.40;;;;;;5055484;28;20155;-74
2022/04/27 06:42:52;;;;;;;14.00;6.25;;;19.00;94.80;;;;;;5055675;28;20486;-73
2022/04/27 06:45:18;;;;;;;9.60;6.68;;;19.60;93.00;;;;;;5055308;28;20025;-73
2022/04/27 06:47:43;;;;;;;11.52;6.40;;;19.90;92.30;;;;;;5055213;28;20083;-74
2022/04/27 06:50:13;;;;;;;9.70;6.60;;;20.70;90.70;;;;;;5055253;28;20025;-76
2022/04/27 06:52:48;;;;;;;9.57;6.32;;;21.20;88.70;;;;;;5055509;28;20017;-74
2022/04/27 06:55:15;;;;;;;10.40;7.03;;;21.60;85.20;;;;;;5055732;28;20475;-73
2022/04/27 06:57:40;;;;;;;11.85;6.60;;;21.90;83.30;;;;;;5055082;28;20056;-75
2022/04/27 07:00:08;;;;;;;10.45;6.88;;;22.40;80.80;;;;;;5055051;28;20056;-73
2022/04/27 07:02:35;;;;;;;10.80;6.45;;;22.50;79.10;;;;;;5037099;28;20025;-74
2022/04/27 07:05:01;;;;;;;10.77;6.20;;;22.70;78.70;;;;;;5054853;28;20108;-72
2022/04/27 07:07:30;;;;;;;9.68;6.30;;;22.90;75.90;;;;;;5054813;28;20078;-73
2022/04/27 07:09:56;;;;;;;11.05;6.80;;;22.30;74.80;;;;;;5055182;28;20025;-72
2022/04/27 07:12:23;;;;;;;12.70;7.07;;;22.30;75.80;;;;;;5055049;28;20549;-74
2022/04/27 07:14:50;;;;;;;9.38;6.68;;;23.10;73.00;;;;;;5054695;28;20119;-74
2022/04/27 07:17:16;;;;;;;8.85;7.43;;;23.90;71.00;;;;;;5054684;28;20503;-74
2022/04/27 07:19:42;;;;;;;9.30;6.43;;;23.90;70.50;;;;;;5054682;28;20024;-73
2022/04/27 07:22:07;;;;;;;10.25;7.50;;;23.90;72.10;;;;;;5054637;28;20036;-73
2022/04/27 07:24:33;;;;;;;10.80;7.10;;;24.40;71.00;;;;;;5054576;28;20502;-73
2022/04/27 07:26:59;;;;;;;9.88;7.30;;;24.20;71.30;;;;;;5054245;28;20048;-70
2022/04/27 07:29:25;;;;;;;9.50;6.53;;;24.60;69.20;;;;;;5054525;28;20025;-74
2022/04/27 07:31:51;;;;;;;11.70;6.47;;;24.60;68.20;;;;;;5054762;28;20021;-70
2022/04/27 07:34:17;;;;;;;8.38;6.70;;;24.40;68.20;;;;;;5054409;28;20545;-68
2022/04/27 07:36:43;;;;;;;9.52;7.25;;;24.20;67.80;;;;;;5054329;28;20043;-69
2022/04/27 07:39:08;;;;;;;9.40;7.38;;;23.80;66.40;;;;;;5054547;28;20079;-68
2022/04/27 07:41:34;;;;;;;11.55;7.38;;;24.20;68.20;;;;;;5053596;28;20021;-69
2022/04/27 07:44:00;;;;;;;13.48;7.95;;;24.20;68.00;;;;;;5054514;28;20391;-69
2022/04/27 07:46:26;;;;;;;11.23;7.03;;;24.70;66.30;;;;;;5054186;28;20018;-69
2022/04/27 07:48:52;;;;;;;11.50;7.80;;;24.40;67.40;;;;;;5054051;28;20036;-68
2022/04/27 07:51:18;;;;;;;11.60;6.70;;;24.90;66.70;;;;;;5054353;28;20379;-69
2022/04/27 07:53:44;;;;;;;12.07;7.55;;;25.60;65.80;;;;;;5054042;28;20025;-69
2022/04/27 07:56:10;;;;;;;9.05;7.47;;;26.20;64.80;;;;;;5054017;28;20158;-68
2022/04/27 07:58:36;;;;;;;9.52;7.95;;;25.40;61.80;;;;;;5053961;28;20032;-69
2022/04/27 08:01:02;;;;;;;9.73;7.82;;;25.30;62.40;;;;;;5054138;28;20041;-70
2022/04/27 08:03:28;;;;;;;9.43;8.00;;;;;;;;;;5053845;28;20029;-69
2022/04/27 08:05:54;;;;;;;13.25;8.18;;;;;;;;;;5053810;28;20028;-68
2022/04/27 08:08:21;;;;;;;10.70;8.52;;;;;;;;;;5053670;28;20035;-72
2022/04/27 08:10:47;;;;;;;12.63;7.93;;;;;;;;;;5053606;28;20025;-74
2022/04/27 08:13:13;;;;;;;9.50;7.85;;;;;;;;;;5053622;28;20056;-72
2022/04/27 08:15:38;;;;;;;11.32;8.77;;;25.30;62.20;;;;;;5053479;28;20530;-73
2022/04/27 08:18:06;;;;;;;11.10;8.05;;;26.00;60.60;;;;;;5053562;28;20029;-73
2022/04/27 08:23:40;;;;;;;10.68;8.40;;;27.00;60.60;;;;;;5052167;28;20040;-73
2022/04/27 08:26:07;;;;;;;9.77;8.30;;;28.60;59.00;;;;;;5052994;28;20402;-76
2022/04/27 08:28:33;;;;;;;11.35;7.90;;;29.40;57.00;;;;;;5053310;28;20033;-72
2022/04/27 08:30:59;;;;;;;10.15;7.82;;;29.30;56.40;;;;;;5053959;28;20049;-72
2022/04/27 08:33:26;;;;;;;10.25;7.80;;;29.80;56.40;;;;;;5035647;28;20116;-74
2022/04/27 08:35:55;;;;;;;10.07;7.60;;;30.10;54.80;;;;;;5053310;28;20040;-76
2022/04/27 08:38:21;;;;;;;10.75;8.35;;;29.80;55.70;;;;;;5053256;28;20482;-72
2022/04/27 08:40:47;;;;;;;12.60;8.43;;;29.90;54.00;;;;;;5053248;28;20021;-76
2022/04/27 08:43:13;;;;;;;9.35;8.35;;;29.00;54.30;;;;;;5053217;28;20542;-75
2022/04/27 08:45:41;;;;;;;12.25;9.00;;;27.20;56.30;;;;;;5053100;28;20086;-71
2022/04/27 08:48:07;;;;;;;11.23;8.75;;;28.10;56.00;;;;;;5052945;28;20025;-71
2022/04/27 08:50:34;;;;;;;12.15;8.18;;;28.30;55.60;;;;;;5053430;28;20074;-73
2022/04/27 08:53:00;;;;;;;11.82;8.68;;;28.40;55.80;;;;;;5051999;28;20033;-73
2022/04/27 08:55:29;;;;;;;9.48;7.80;;;29.50;55.30;;;;;;5051831;28;20032;-73
2022/04/27 08:58:06;;;;;;;11.95;8.50;;;30.60;53.90;;;;;;5053326;28;20103;-73
2022/04/27 09:00:32;;;;;;;13.55;8.63;;;30.80;53.10;;;;;;5053641;28;20107;-71
2022/04/27 09:03:27;;;;;;;13.65;8.95;;;31.40;52.30;;;;;;5053271;28;20076;-70
2022/04/27 09:05:55;;;;;;;11.13;8.88;;;30.10;52.80;;;;;;5053038;28;20479;-73
2022/04/27 09:08:23;;;;;;;10.23;8.05;;;30.00;52.60;;;;;;5052890;28;20126;-72
2022/04/27 09:10:49;;;;;;;;;;;30.90;52.50;;;;;;5053648;28;20079;-71
2022/04/27 09:13:15;;;;;;;9.05;7.53;;;31.60;52.10;;;;;;5053439;28;19908;-71
2022/04/27 09:15:41;;;;;;;11.07;8.82;;;31.90;51.00;;;;;;5052774;28;20025;-72
2022/04/27 09:21:01;;;;;;;10.73;8.43;;;31.30;50.40;;;;;;5052876;28;20106;-72
2022/04/27 09:23:37;;;;;;;12.75;8.52;;;31.10;50.50;;;;;;5053131;28;20163;-71
2022/04/27 09:26:19;;;;;;;13.45;9.40;;;29.10;52.00;;;;;;5052991;28;20510;-71
2022/04/27 09:28:55;;;;;;;11.23;8.90;;;28.20;53.00;;;;;;5053227;28;20029;-71
2022/04/27 09:31:32;;;;;;;12.73;9.13;;;27.70;53.40;;;;;;5052946;28;20020;-71
2022/04/27 09:33:59;;;;;;;11.45;9.80;;;27.30;53.70;;;;;;5052988;28;20021;-71
2022/04/27 09:36:25;;;;;;;12.10;9.35;;;26.00;55.20;;;;;;5053248;28;20028;-71
2022/04/27 09:38:53;;;;;;;12.07;9.30;;;25.90;55.90;;;;;;5052691;28;20087;-70
2022/04/27 09:41:39;;;;;;;13.90;10.23;;;25.30;56.50;;;;;;5052618;28;20490;-70
2022/04/27 09:44:05;;;;;;;13.60;9.50;;;24.50;56.70;;;;;;5052956;28;20036;-70
2022/04/27 09:46:31;;;;;;;13.55;9.18;;;24.80;57.10;;;;;;5052604;28;20025;-71
2022/04/27 09:49:09;;;;;;;;;;;25.00;57.00;;;;;;5052966;28;20099;-70
2022/04/27 09:51:49;;;;;;;11.57;9.55;;;24.40;57.10;;;;;;5053112;28;19912;-71
2022/04/27 09:54:21;;;;;;;13.13;9.80;;;24.90;56.60;;;;;;5053083;28;20013;-71
2022/04/27 09:56:56;;;;;;;10.70;8.95;;;25.00;56.80;;;;;;5052754;28;20028;-70
2022/04/27 09:59:40;;;;;;;12.27;9.20;;;25.40;56.70;;;;;;5052464;28;20105;-71
2022/04/27 10:02:11;;;;;;;12.07;9.60;;;26.10;55.60;;;;;;5052711;28;20017;-71
2022/04/27 10:04:37;;;;;;;10.02;8.43;;;27.30;54.60;;;;;;5054390;28;20040;-72
2022/04/27 10:07:07;;;;;;;11.77;8.20;;;30.00;53.30;;;;;;5038171;28;20025;-72
2022/04/27 10:09:33;;;;;;;11.95;9.18;;;32.40;50.80;;;;;;5056504;28;20119;-72
2022/04/27 10:12:04;;;;;;;11.05;8.68;;;;;;;;;;5056016;28;20079;-71
2022/04/27 10:14:30;;;;;;;10.50;8.70;;;33.40;48.60;;;;;;5056095;28;20100;-71
2022/04/27 10:16:57;;;;;;;10.77;8.73;;;32.20;48.00;;;;;;5055845;28;20029;-71
2022/04/27 10:19:23;;;;;;;9.27;7.95;;;31.30;49.00;;;;;;5055841;28;20032;-72
2022/04/27 10:21:57;;;;;;;9.98;8.60;;;30.60;49.40;;;;;;5055803;28;20025;-71
2022/04/27 10:24:35;;;;;;;13.00;9.77;;;29.70;49.70;;;;;;5055780;28;20017;-72
2022/04/27 10:27:18;;;;;;;11.73;9.80;;;28.20;50.80;;;;;;5055586;28;20103;-71
2022/04/27 10:29:52;;;;;;;11.43;9.20;;;28.40;52.70;;;;;;5055933;28;20028;-71
2022/04/27 10:32:37;;;;;;;10.23;8.30;;;30.50;50.60;;;;;;5055577;28;20029;-70
2022/04/27 10:35:14;;;;;;;12.40;9.05;;;31.60;49.40;;;;;;5055567;28;20024;-71
2022/04/27 10:37:54;;;;;;;10.43;8.93;;;;;;;;;;5055792;28;20033;-72
2022/04/27 10:40:34;;;;;;;12.38;9.25;;;31.90;47.70;;;;;;5055999;28;20112;-72
2022/04/27 10:43:15;;;;;;;11.38;9.00;;;31.50;48.70;;;;;;5055362;28;20565;-72
2022/04/27 10:45:42;;;;;;;10.05;8.52;;;32.20;48.20;;;;;;5055640;28;20025;-71
2022/04/27 10:48:15;;;;;;;11.43;9.35;;;32.10;47.90;;;;;;5055209;28;20025;-71
2022/04/27 10:51:04;;;;;;;12.27;8.35;;;30.50;48.20;;;;;;5037135;28;20029;-70
2022/04/27 10:53:38;;;;;;;;;;;30.10;49.50;;;;;;5055900;28;20032;-71
2022/04/27 10:56:04;;;;;;;;;;;;;;;;;;5056054;28;19905;-73
2022/04/27 10:58:34;;;;;;;12.55;9.90;;;;;;;;;;5055268;28;19908;-73
2022/04/27 11:01:02;;;;;;;12.25;9.25;;;30.00;49.30;;;;;;5055681;28;20033;-74
2022/04/27 11:03:39;;;;;;;11.03;9.83;;;28.50;50.50;;;;;;5055076;28;19909;-74
2022/04/27 11:06:04;;;;;;;11.73;9.68;;;28.20;50.80;;;;;;5037130;28;20040;-74
2022/04/27 11:08:42;;;;;;;14.85;10.55;;;29.40;49.80;;;;;;5055135;28;20025;-71
2022/04/27 11:11:09;;;;;;;13.82;10.35;;;;;;;;;;5055206;28;20017;-69
2022/04/27 11:13:37;;;;;;;13.70;10.50;;;30.40;49.00;;;;;;5054883;28;20476;-71
2022/04/27 11:16:10;;;;;;;10.07;8.95;;;;;;;;;;5053671;28;20032;-69
2022/04/27 11:18:59;;;;;;;10.88;8.90;;;28.70;49.90;;;;;;5055303;28;20025;-69
2022/04/27 11:21:28;;;;;;;11.60;9.50;;;30.30;49.40;;;;;;5055010;28;20056;-70
2022/04/27 11:23:54;;;;;;;13.00;9.07;;;30.00;49.20;;;;;;5054699;28;20390;-70
2022/04/27 11:26:20;;;;;;;10.90;8.63;;;30.70;48.60;;;;;;5054399;28;20128;-69
2022/04/27 11:28:47;;;;;;;10.95;9.60;;;30.90;49.30;;;;;;5054515;28;20033;-69
2022/04/27 11:31:14;;;;;;;11.52;9.05;;;30.80;48.70;;;;;;5054492;28;20024;-69
2022/04/27 11:33:40;;;;;;;12.30;10.05;;;30.70;47.90;;;;;;5054773;28;20060;-70
2022/04/27 11:36:07;;;;;;;12.17;9.50;;;30.20;48.60;;;;;;5054456;28;20025;-70
2022/04/27 11:38:37;;;;;;;10.50;8.75;;;29.30;48.80;;;;;;5036486;28;20152;-69
2022/04/27 11:41:12;;;;;;;15.20;10.50;;;28.60;50.20;;;;;;5054327;28;20398;-69
2022/04/27 11:43:38;;;;;;;11.80;9.05;;;27.40;51.60;;;;;;5054640;28;20486;-70
2022/04/27 11:46:04;;;;;;;12.02;9.35;;;23.80;55.10;;;;;;5054149;28;20024;-70
2022/04/27 11:48:30;;;;;;;15.25;10.90;;;22.30;58.30;;;;;;5054020;28;20040;-70
2022/04/27 11:51:00;;;;;;;14.18;10.98;;;;;;;;;;5054404;28;20100;-70
2022/04/27 11:53:26;;;;;;;15.10;10.48;;;21.70;59.10;;;;;;5054038;28;20021;-71
2022/04/27 11:55:52;;;;;;;15.85;11.02;;;20.80;60.70;;;;;;5054313;28;20021;-70
2022/04/27 11:58:25;;;;;;;15.05;10.63;;;20.90;59.90;;;;;;5054004;28;20078;-70
2022/04/27 12:00:59;;;;;;;14.40;11.07;;;20.80;61.10;;;;;;5054228;28;20094;-69
2022/04/27 12:03:25;;;;;;;14.35;10.55;;;;;;;;;;5053599;28;20029;-70
2022/04/27 12:05:52;;;;;;;19.95;10.55;;;20.60;62.30;;;;;;5054101;28;20021;-70
2022/04/27 12:08:20;;;;;;;12.57;9.90;;;20.30;62.30;;;;;;5053695;28;20033;-70
2022/04/27 12:10:46;;;;;;;14.45;10.18;;;;;;;;;;5053727;28;20119;-70
2022/04/27 12:13:16;;;;;;;14.35;10.20;;;;;;;;;;5053999;28;20063;-70
2022/04/27 12:15:43;;;;;;;14.43;10.00;;;;;;;;;;5054168;28;20112;-69
2022/04/27 12:18:16;;;;;;;15.70;10.43;;;;;;;;;;5053958;28;20017;-69
2022/04/27 12:20:42;;;;;;;11.63;9.27;;;;;;;;;;5053896;28;20437;-69
2022/04/27 12:23:12;;;;;;;13.30;9.25;;;;;;;;;;5053553;28;20025;-70
2022/04/27 12:25:38;;;;;;;14.10;9.38;;;;;;;;;;5053367;28;20103;-69
2022/04/27 12:28:06;;;;;;;16.63;10.80;;;;;;;;;;5053405;28;20155;-69
2022/04/27 12:30:32;;;;;;;16.20;10.75;;;;;;;;;;5053481;28;20108;-69
2022/04/27 12:32:59;;;;;;;15.13;9.20;;;;;;;;;;5053691;28;20102;-70
2022/04/27 12:38:19;;;;;;;12.18;9.13;;;;;;;;;;5053109;28;20158;-70
2022/04/27 12:40:45;;;;;;;11.00;8.23;;;;;;;;;;5053419;28;20029;-71
2022/04/27 12:43:14;;;;;;;13.27;9.68;;;20.40;62.00;;;;;;5053224;28;20027;-70
2022/04/27 12:45:40;;;;;;;12.40;9.23;;;;;;;;;;5053503;28;20108;-69
2022/04/27 12:48:06;;;;;;;14.05;9.85;;;;;;;;;;5053606;28;20079;-71
2022/04/27 12:50:46;;;;;;;13.48;9.15;;;;;;;;;;5053453;28;20443;-69
2022/04/27 12:53:12;;;;;;;13.93;9.60;;;;;;;;;;5053456;28;20568;-68
2022/04/27 12:55:38;;;;;;;15.02;10.20;;;;;;;;;;5053083;28;20100;-71
2022/04/27 12:58:05;;;;;;;13.35;9.68;;;;;;;;;;5053011;28;20440;-70
2022/04/27 13:00:38;;;;;;;13.93;10.77;;;;;;;;;;5035148;28;20119;-70
2022/04/27 13:03:04;;;;;;;13.05;9.95;;;;;;;;;;5053038;28;20100;-70
2022/04/27 13:05:30;;;;;;;13.35;10.02;;;;;;;;;;5053219;28;20060;-70
2022/04/27 13:07:55;;;;;;;12.07;9.23;;;20.40;61.80;;;;;;5052850;28;20406;-69
2022/04/27 13:13:08;;;;;;;14.50;9.73;;;20.30;63.50;;;;;;5052975;28;20040;-71
2022/04/27 13:15:34;;;;;;;15.32;10.75;;;;;;;;;;5052888;28;20127;-70
2022/04/27 13:18:00;;;;;;;15.55;11.00;;;;;;;;;;5052923;28;20065;-68
2022/04/27 13:20:26;;;;;;;14.75;11.07;;;;;;;;;;5053132;28;20104;-69
2022/04/27 13:22:52;;;;;;;13.68;9.88;;;;;;;;;;5034979;28;20033;-69
2022/04/27 13:25:18;;;;;;;14.88;10.48;;;;;;;;;;5052582;28;20376;-70
2022/04/27 13:27:44;;;;;;;15.60;10.00;;;;;;;;;;5052976;28;20036;-69
2022/04/27 13:30:11;;;;;;;15.63;10.70;;;20.10;65.50;;;;;;5052732;28;20032;-69
2022/04/27 13:32:38;;;;;;;15.70;11.57;;;21.10;64.80;;;;;;5053348;28;20115;-72
2022/04/27 13:35:05;;;;;;;16.17;10.38;;;21.00;63.50;;;;;;5052996;28;20021;-70
2022/04/27 13:37:31;;;;;;;18.85;11.32;;;21.00;64.30;;;;;;5052737;28;20025;-72
2022/04/27 13:39:57;;;;;;;14.15;10.80;;;21.00;63.80;;;;;;5055323;28;20051;-69